createdAt,value
2019-03-10T00:01:06.281Z,10.20
2019-03-10T00:03:35.135Z,10.10
2019-03-10T00:06:04.046Z,10.20
2019-03-10T00:08:32.914Z,10.10
2019-03-10T00:11:01.837Z,10.10
2019-03-10T00:13:30.776Z,10.10
2019-03-10T00:15:59.633Z,10.10
2019-03-10T00:18:28.628Z,10.20
2019-03-10T00:20:57.648Z,10.10
2019-03-10T00:23:26.676Z,10.10
2019-03-10T00:25:55.645Z,10.10
2019-03-10T00:28:24.681Z,10.10
2019-03-10T00:30:53.609Z,10.10
2019-03-10T00:33:22.535Z,10.00
2019-03-10T00:35:51.509Z,10.00
2019-03-10T00:38:20.492Z,10.00
2019-03-10T00:41:21.312Z,10.00
2019-03-10T00:44:18.086Z,9.90
2019-03-10T00:47:14.028Z,9.90
2019-03-10T00:50:08.800Z,9.90
2019-03-10T00:52:41.947Z,9.90
2019-03-10T00:55:10.917Z,9.90
2019-03-10T00:57:39.991Z,9.90
2019-03-10T01:00:17.084Z,9.90
2019-03-10T01:02:46.091Z,9.80
2019-03-10T01:05:15.072Z,9.80
2019-03-10T01:07:44.082Z,9.80
2019-03-10T01:10:13.182Z,9.70
2019-03-10T01:12:42.111Z,9.70
2019-03-10T01:15:11.561Z,9.60
2019-03-10T01:17:40.868Z,9.70
2019-03-10T01:20:10.605Z,9.70
2019-03-10T01:22:40.808Z,9.70
2019-03-10T01:25:09.878Z,9.60
2019-03-10T01:27:38.780Z,9.60
2019-03-10T01:30:11.684Z,9.60
2019-03-10T01:32:55.049Z,9.60
2019-03-10T01:35:30.548Z,9.70
2019-03-10T01:37:59.375Z,9.60
2019-03-10T01:40:28.236Z,9.60
2019-03-10T01:42:57.175Z,9.60
2019-03-10T01:45:26.189Z,9.60
2019-03-10T01:47:55.138Z,9.60
2019-03-10T01:50:24.001Z,9.50
2019-03-10T01:52:52.964Z,9.60
2019-03-10T01:55:23.088Z,9.50
2019-03-10T01:57:52.014Z,9.50
2019-03-10T02:00:20.961Z,9.40
2019-03-10T02:02:49.872Z,9.50
2019-03-10T02:05:18.707Z,9.50
2019-03-10T02:07:47.640Z,9.50
2019-03-10T02:10:16.727Z,9.50
2019-03-10T02:12:45.749Z,9.40
2019-03-10T02:15:15.872Z,9.30
2019-03-10T02:17:44.793Z,9.30
2019-03-10T02:20:16.119Z,9.20
2019-03-10T02:22:45.035Z,9.20
2019-03-10T02:25:14.079Z,9.30
2019-03-10T02:27:42.911Z,9.20
2019-03-10T02:30:14.776Z,9.20
2019-03-10T02:32:43.850Z,9.20
2019-03-10T02:35:12.811Z,9.20
2019-03-10T02:37:41.650Z,9.20
2019-03-10T02:40:10.713Z,9.20
2019-03-10T02:42:39.562Z,9.20
2019-03-10T02:45:09.636Z,9.20
2019-03-10T02:47:38.661Z,9.10
2019-03-10T02:50:08.352Z,9.10
2019-03-10T02:52:37.365Z,9.10
2019-03-10T02:55:06.625Z,9.10
2019-03-10T02:57:35.587Z,9.10
2019-03-10T03:00:05.958Z,9.20
2019-03-10T03:02:34.900Z,9.20
2019-03-10T03:05:04.079Z,9.30
2019-03-10T03:07:32.934Z,9.40
2019-03-10T03:10:01.780Z,9.40
2019-03-10T03:12:30.604Z,9.50
2019-03-10T03:14:59.500Z,9.50
2019-03-10T03:17:28.358Z,9.60
2019-03-10T03:19:57.192Z,9.70
2019-03-10T03:22:26.062Z,9.90
2019-03-10T03:24:54.929Z,10.10
2019-03-10T03:27:24.008Z,10.10
2019-03-10T03:29:53.073Z,10.20
2019-03-10T03:32:22.006Z,10.20
2019-03-10T03:34:51.223Z,10.20
2019-03-10T03:37:21.875Z,10.20
2019-03-10T03:39:52.540Z,10.20
2019-03-10T03:42:21.394Z,9.90
2019-03-10T03:44:50.272Z,9.60
2019-03-10T03:47:19.184Z,9.30
2019-03-10T03:49:48.093Z,9.00
2019-03-10T03:52:19.016Z,8.80
2019-03-10T03:54:47.934Z,8.70
2019-03-10T03:57:16.971Z,8.50
2019-03-10T03:59:45.885Z,8.40
2019-03-10T04:02:49.273Z,8.30
2019-03-10T04:05:18.261Z,8.20
2019-03-10T04:07:47.173Z,8.20
2019-03-10T04:10:16.301Z,8.20
2019-03-10T04:12:45.164Z,8.10
2019-03-10T04:15:14.298Z,8.10
2019-03-10T04:17:43.258Z,8.10
2019-03-10T04:20:12.270Z,8.10
2019-03-10T04:22:41.109Z,8.10
2019-03-10T04:25:10.099Z,8.00
2019-03-10T04:27:38.943Z,8.10
2019-03-10T04:30:08.633Z,8.00
2019-03-10T04:32:37.495Z,8.00
2019-03-10T04:35:06.552Z,8.00
2019-03-10T04:37:35.569Z,8.00
2019-03-10T04:40:05.048Z,8.00
2019-03-10T04:42:34.011Z,8.00
2019-03-10T04:45:02.857Z,8.00
2019-03-10T04:47:31.667Z,8.00
2019-03-10T04:50:00.504Z,7.90
2019-03-10T04:52:29.375Z,7.90
2019-03-10T04:55:12.031Z,7.90
2019-03-10T04:57:57.600Z,7.90
2019-03-10T05:00:27.133Z,7.90
2019-03-10T05:02:56.026Z,7.80
2019-03-10T05:05:25.020Z,7.80
2019-03-10T05:07:53.995Z,7.90
2019-03-10T05:10:25.086Z,7.80
2019-03-10T05:12:53.448Z,7.70
2019-03-10T05:15:22.341Z,7.70
2019-03-10T05:17:51.252Z,7.60
2019-03-10T05:20:20.075Z,7.60
2019-03-10T05:22:48.912Z,7.60
2019-03-10T05:25:18.414Z,7.50
2019-03-10T05:27:47.244Z,7.60
2019-03-10T05:30:16.281Z,7.50
2019-03-10T05:32:45.151Z,7.50
2019-03-10T05:35:14.123Z,7.50
2019-03-10T05:37:42.983Z,7.40
2019-03-10T05:40:12.066Z,7.40
2019-03-10T05:42:40.978Z,7.30
2019-03-10T05:45:09.994Z,7.30
2019-03-10T05:47:38.884Z,7.40
2019-03-10T05:50:07.818Z,7.30
2019-03-10T05:52:36.655Z,7.30
2019-03-10T05:55:05.713Z,7.30
2019-03-10T05:57:34.548Z,7.30
2019-03-10T06:00:03.506Z,7.30
2019-03-10T06:02:32.385Z,7.40
2019-03-10T06:05:01.219Z,7.40
2019-03-10T06:07:30.073Z,7.40
2019-03-10T06:09:58.908Z,7.50
2019-03-10T06:12:27.761Z,7.50
2019-03-10T06:14:56.590Z,7.60
2019-03-10T06:17:25.443Z,7.60
2019-03-10T06:19:54.303Z,7.60
2019-03-10T06:22:23.202Z,7.50
2019-03-10T06:24:52.028Z,7.60
2019-03-10T06:27:20.949Z,7.60
2019-03-10T06:29:49.798Z,7.60
2019-03-10T06:32:18.701Z,7.60
2019-03-10T06:34:47.548Z,7.60
2019-03-10T06:37:16.409Z,7.70
2019-03-10T06:39:45.392Z,7.70
2019-03-10T06:42:14.234Z,7.80
2019-03-10T06:44:43.074Z,7.80
2019-03-10T06:47:11.916Z,7.70
2019-03-10T06:49:40.787Z,7.80
2019-03-10T06:52:09.705Z,7.80
2019-03-10T06:54:38.557Z,7.70
2019-03-10T06:57:07.428Z,7.80
2019-03-10T06:59:36.336Z,7.70
2019-03-10T07:02:07.375Z,7.80
2019-03-10T07:04:36.226Z,7.80
2019-03-10T07:07:05.229Z,7.90
2019-03-10T07:09:34.147Z,7.90
2019-03-10T07:12:03.168Z,8.00
2019-03-10T07:14:32.039Z,8.10
2019-03-10T07:17:00.964Z,8.30
2019-03-10T07:19:29.813Z,8.40
2019-03-10T07:21:58.644Z,8.60
2019-03-10T07:24:27.469Z,8.70
2019-03-10T07:26:56.414Z,8.80
2019-03-10T07:29:53.812Z,8.90
2019-03-10T07:32:27.791Z,9.00
2019-03-10T07:35:22.092Z,9.00
2019-03-10T07:38:10.117Z,9.10
2019-03-10T07:41:10.404Z,9.20
2019-03-10T07:43:51.480Z,9.30
2019-03-10T07:46:31.132Z,9.40
2019-03-10T07:49:09.465Z,9.50
2019-03-10T07:52:03.633Z,9.60
2019-03-10T07:54:37.937Z,9.70
2019-03-10T07:57:20.880Z,9.80
2019-03-10T08:00:01.320Z,9.90
2019-03-10T08:02:55.703Z,10.00
2019-03-10T08:05:43.104Z,10.20
2019-03-10T08:08:20.134Z,10.40
2019-03-10T08:11:02.018Z,10.50
2019-03-10T08:13:40.345Z,10.70
2019-03-10T08:16:34.100Z,10.90
2019-03-10T08:19:12.641Z,11.10
2019-03-10T08:22:09.790Z,11.30
2019-03-10T08:24:57.712Z,11.40
2019-03-10T08:27:40.780Z,11.50
2019-03-10T08:30:27.694Z,11.60
2019-03-10T08:33:18.400Z,11.60
2019-03-10T08:36:00.163Z,11.60
2019-03-10T08:38:46.960Z,11.70
2019-03-10T08:41:33.808Z,11.70
2019-03-10T08:44:16.269Z,11.70
2019-03-10T08:47:02.842Z,11.80
2019-03-10T08:49:45.374Z,11.90
2019-03-10T08:52:18.817Z,11.90
2019-03-10T08:54:55.670Z,11.90
2019-03-10T08:57:42.337Z,12.00
2019-03-10T09:00:18.585Z,12.10
2019-03-10T09:03:09.416Z,12.20
2019-03-10T09:06:02.539Z,12.20
2019-03-10T09:08:48.118Z,12.20
2019-03-10T09:11:42.206Z,12.20
2019-03-10T09:14:30.311Z,12.20
2019-03-10T09:17:05.777Z,12.20
2019-03-10T09:19:56.932Z,12.20
2019-03-10T09:22:48.610Z,12.10
2019-03-10T09:25:55.021Z,12.10
2019-03-10T09:31:51.142Z,11.90
2019-03-10T09:34:39.071Z,11.90
2019-03-10T09:37:18.100Z,11.80
2019-03-10T09:40:12.129Z,11.90
2019-03-10T09:43:15.637Z,11.80
2019-03-10T09:46:05.721Z,11.80
2019-03-10T09:48:52.285Z,11.90
2019-03-10T09:51:30.192Z,11.90
2019-03-10T09:54:16.975Z,11.70
2019-03-10T09:56:55.827Z,11.70
2019-03-10T10:00:57.936Z,11.50
2019-03-10T10:03:40.094Z,11.40
2019-03-10T10:06:34.148Z,11.30
2019-03-10T10:09:34.173Z,11.20
2019-03-10T10:12:19.589Z,11.20
2019-03-10T10:15:06.291Z,11.20
2019-03-10T10:17:53.287Z,11.10
2019-03-10T10:20:46.772Z,11.10
2019-03-10T10:23:41.002Z,11.10
2019-03-10T10:26:26.962Z,11.00
2019-03-10T10:29:27.409Z,11.00
2019-03-10T10:32:27.593Z,10.90
2019-03-10T10:35:22.507Z,10.80
2019-03-10T10:38:01.446Z,10.70
2019-03-10T10:40:58.558Z,10.70
2019-03-10T10:43:46.554Z,10.70
2019-03-10T10:46:33.210Z,10.70
2019-03-10T10:49:13.306Z,10.60
2019-03-10T10:51:56.021Z,10.60
2019-03-10T10:54:36.332Z,10.60
2019-03-10T10:57:12.434Z,10.60
2019-03-10T11:00:03.427Z,10.80
2019-03-10T11:02:51.684Z,10.80
2019-03-10T11:05:27.440Z,11.00
2019-03-10T11:08:15.366Z,11.10
2019-03-10T11:11:03.945Z,11.10
2019-03-10T11:14:03.849Z,11.30
2019-03-10T11:16:57.917Z,11.30
2019-03-10T11:19:36.249Z,11.50
2019-03-10T11:22:24.589Z,11.50
2019-03-10T11:25:15.616Z,11.40
2019-03-10T11:27:58.939Z,11.40
2019-03-10T11:30:56.355Z,11.40
2019-03-10T11:33:44.383Z,11.50
2019-03-10T11:36:29.506Z,11.90
2019-03-10T11:39:17.495Z,12.10
2019-03-10T11:42:11.601Z,12.30
2019-03-10T11:44:58.298Z,12.30
2019-03-10T11:47:31.851Z,12.40
2019-03-10T11:50:14.934Z,12.40
2019-03-10T11:53:19.498Z,12.40
2019-03-10T11:56:13.116Z,12.40
2019-03-10T11:59:16.174Z,12.60
2019-03-10T12:02:15.900Z,12.80
2019-03-10T12:04:48.484Z,13.10
2019-03-10T12:07:39.324Z,13.20
2019-03-10T12:10:08.963Z,13.10
2019-03-10T12:12:38.278Z,13.00
2019-03-10T12:15:08.425Z,12.70
2019-03-10T12:17:37.418Z,12.60
2019-03-10T12:20:08.151Z,12.60
2019-03-10T12:22:37.036Z,12.60
2019-03-10T12:25:08.769Z,12.70
2019-03-10T12:27:37.757Z,12.80
2019-03-10T12:30:07.271Z,12.90
2019-03-10T12:32:36.228Z,12.80
2019-03-10T12:35:05.771Z,12.80
2019-03-10T12:37:34.838Z,12.70
2019-03-10T12:40:04.265Z,12.80
2019-03-10T12:42:35.607Z,12.80
2019-03-10T12:45:05.395Z,12.90
2019-03-10T12:47:38.917Z,13.10
2019-03-10T12:50:08.498Z,13.30
2019-03-10T12:52:40.031Z,13.50
2019-03-10T12:55:09.200Z,13.60
2019-03-10T12:57:41.730Z,13.60
2019-03-10T13:04:13.997Z,13.70
2019-03-10T13:07:31.706Z,13.90
2019-03-10T13:16:48.869Z,13.90
2019-03-10T13:19:21.873Z,14.00
2019-03-10T13:21:54.589Z,14.20
2019-03-10T13:28:30.726Z,14.10
2019-03-10T13:31:04.335Z,13.90
2019-03-10T13:33:58.634Z,13.90
2019-03-10T13:36:35.545Z,14.00
2019-03-10T13:39:14.119Z,14.10
2019-03-10T13:41:47.848Z,14.10
2019-03-10T13:45:32.879Z,14.10
2019-03-10T13:48:13.437Z,14.00
2019-03-10T13:50:42.829Z,14.10
2019-03-10T13:53:16.991Z,14.20
2019-03-10T13:55:48.829Z,14.30
2019-03-10T13:58:33.963Z,14.30
2019-03-10T14:01:03.715Z,14.30
2019-03-10T14:04:12.616Z,14.40
2019-03-10T14:06:49.780Z,14.60
2019-03-10T14:09:18.824Z,14.60
2019-03-10T14:11:47.817Z,14.40
2019-03-10T14:14:18.159Z,14.30
2019-03-10T14:16:48.161Z,14.50
2019-03-10T14:19:19.101Z,14.50
2019-03-10T14:21:48.457Z,14.40
2019-03-10T14:24:19.176Z,14.30
2019-03-10T14:26:49.938Z,14.40
2019-03-10T14:29:18.885Z,14.50
2019-03-10T14:31:49.206Z,14.40
2019-03-10T14:34:18.306Z,14.20
2019-03-10T14:36:49.417Z,14.30
2019-03-10T14:39:18.459Z,14.20
2019-03-10T14:42:54.835Z,14.30
2019-03-10T14:45:23.864Z,14.40
2019-03-10T14:47:53.186Z,14.30
2019-03-10T14:50:22.235Z,14.20
2019-03-10T14:52:51.392Z,14.10
2019-03-10T14:55:20.427Z,14.20
2019-03-10T14:57:49.545Z,14.30
2019-03-10T15:00:20.204Z,14.30
2019-03-10T15:02:49.213Z,14.10
2019-03-10T15:05:18.270Z,13.80
2019-03-10T15:08:02.135Z,13.80
2019-03-10T15:10:32.975Z,13.90
2019-03-10T15:13:01.989Z,14.10
2019-03-10T15:15:35.389Z,14.20
2019-03-10T15:18:05.654Z,14.10
2019-03-10T15:20:37.115Z,14.10
2019-03-10T15:23:06.403Z,13.90
2019-03-10T15:25:35.370Z,13.80
2019-03-10T15:28:05.262Z,13.80
2019-03-10T15:30:35.486Z,13.80
2019-03-10T15:33:07.169Z,13.70
2019-03-10T15:35:37.764Z,13.50
2019-03-10T15:38:08.140Z,13.40
2019-03-10T15:40:37.306Z,13.30
2019-03-10T15:43:06.284Z,13.20
2019-03-10T15:45:36.530Z,12.90
2019-03-10T15:48:07.632Z,12.60
2019-03-10T15:50:36.719Z,12.40
2019-03-10T15:53:05.831Z,12.10
2019-03-10T15:55:39.018Z,11.70
2019-03-10T15:58:08.071Z,11.50
2019-03-10T16:00:38.385Z,10.50
2019-03-10T16:03:08.278Z,9.90
2019-03-10T16:05:42.619Z,9.70
2019-03-10T16:08:14.910Z,9.60
2019-03-10T16:10:47.157Z,9.50
2019-03-10T16:13:20.438Z,9.40
2019-03-10T16:15:53.511Z,9.40
2019-03-10T16:18:26.650Z,9.50
2019-03-10T16:20:59.091Z,9.60
2019-03-10T16:23:28.247Z,9.70
2019-03-10T16:25:58.585Z,9.70
2019-03-10T16:28:36.427Z,9.70
2019-03-10T16:31:41.857Z,9.70
2019-03-10T16:34:15.216Z,9.70
2019-03-10T16:40:02.606Z,9.80
2019-03-10T16:56:34.229Z,10.20
2019-03-10T16:59:03.457Z,10.30
2019-03-10T17:01:33.736Z,10.20
2019-03-10T17:04:02.794Z,10.20
2019-03-10T17:06:32.884Z,10.20
2019-03-10T17:09:01.869Z,10.20
2019-03-10T17:11:30.808Z,10.30
2019-03-10T17:14:06.614Z,10.50
2019-03-10T17:16:35.608Z,10.50
2019-03-10T17:19:04.656Z,10.50
2019-03-10T17:21:36.445Z,10.50
2019-03-10T17:24:10.371Z,10.60
2019-03-10T17:26:41.424Z,10.50
2019-03-10T17:29:17.318Z,10.30
2019-03-10T17:32:10.042Z,10.00
2019-03-10T17:34:39.562Z,9.90
2019-03-10T17:37:08.752Z,9.80
2019-03-10T17:39:41.471Z,9.70
2019-03-10T17:42:10.472Z,9.70
2019-03-10T17:45:03.763Z,9.70
2019-03-10T17:47:36.319Z,9.80
2019-03-10T17:50:56.939Z,9.70
2019-03-10T20:01:38.332Z,8.60
2019-03-10T20:04:09.364Z,8.50
2019-03-10T20:06:38.371Z,8.50
2019-03-10T20:09:09.189Z,8.50
2019-03-10T20:11:38.115Z,8.50
2019-03-10T20:14:07.029Z,8.50
2019-03-10T20:16:35.861Z,8.40
2019-03-10T20:19:04.858Z,8.40
2019-03-10T20:21:33.736Z,8.40
2019-03-10T20:24:02.631Z,8.40
2019-03-10T20:26:31.668Z,8.40
2019-03-10T20:29:00.624Z,8.40
2019-03-10T20:31:29.472Z,8.40
2019-03-10T20:33:58.384Z,8.40
2019-03-10T20:36:28.641Z,8.50
2019-03-10T20:38:57.845Z,8.60
2019-03-10T20:41:26.682Z,8.80
2019-03-10T20:43:55.541Z,8.80
2019-03-10T20:46:24.458Z,8.90
2019-03-10T20:48:53.333Z,8.90
2019-03-10T20:51:22.166Z,9.00
2019-03-10T20:53:51.097Z,9.00
2019-03-10T20:56:20.012Z,9.00
2019-03-10T20:58:49.033Z,9.00
2019-03-10T21:01:17.991Z,9.00
2019-03-10T21:03:46.848Z,9.00
2019-03-10T21:06:15.840Z,9.00
2019-03-10T21:08:44.681Z,9.00
2019-03-10T21:11:13.600Z,9.00
2019-03-10T21:13:42.518Z,9.00
2019-03-10T21:16:11.448Z,9.00
2019-03-10T21:18:40.305Z,9.00
2019-03-10T21:21:11.513Z,8.90
2019-03-10T21:23:41.666Z,8.90
2019-03-10T21:26:10.603Z,8.70
2019-03-10T21:28:40.600Z,8.40
2019-03-10T21:31:09.957Z,8.10
2019-03-10T21:33:40.684Z,8.10
2019-03-10T21:36:09.567Z,7.90
2019-03-10T21:38:40.104Z,7.80
2019-03-10T21:41:14.152Z,7.80
2019-03-10T21:43:39.570Z,7.70
2019-03-10T21:46:08.712Z,7.60
2019-03-10T21:48:37.559Z,7.60
2019-03-10T21:51:06.557Z,7.60
2019-03-10T21:53:35.412Z,7.50
2019-03-10T21:56:04.317Z,7.40
2019-03-10T21:58:33.162Z,7.30
2019-03-10T22:01:02.004Z,7.00
2019-03-10T22:03:31.050Z,6.70
2019-03-10T22:05:59.994Z,6.50
2019-03-10T22:08:28.838Z,6.20
2019-03-10T22:10:57.697Z,6.10
2019-03-10T22:13:26.596Z,6.00
2019-03-10T22:15:55.503Z,6.00
2019-03-10T22:18:24.352Z,6.00
2019-03-10T22:20:53.293Z,6.00
2019-03-10T22:23:22.152Z,6.00
2019-03-10T22:25:52.873Z,6.10
2019-03-10T22:28:22.876Z,6.00
2019-03-10T22:30:51.914Z,6.00
2019-03-10T22:33:20.861Z,6.00
2019-03-10T22:35:49.750Z,5.90
2019-03-10T22:38:19.597Z,5.90
2019-03-10T22:40:48.538Z,5.90
2019-03-10T22:43:17.452Z,5.90
2019-03-10T22:45:46.405Z,5.90
2019-03-10T22:48:15.232Z,6.00
2019-03-10T22:50:44.083Z,6.00
2019-03-10T22:53:13.006Z,6.00
2019-03-10T22:55:41.868Z,6.00
2019-03-10T22:58:10.696Z,6.00
2019-03-10T23:00:48.612Z,5.90
2019-03-10T23:03:17.539Z,5.90
2019-03-10T23:05:47.429Z,5.90
2019-03-10T23:08:16.263Z,5.90
2019-03-10T23:10:45.281Z,5.90
2019-03-10T23:13:14.217Z,5.90
2019-03-10T23:15:43.152Z,5.90
2019-03-10T23:18:12.099Z,5.90
2019-03-10T23:20:41.052Z,5.80
2019-03-10T23:23:09.982Z,5.80
2019-03-10T23:25:38.906Z,5.80
2019-03-10T23:28:07.832Z,5.70
2019-03-10T23:30:38.212Z,5.70
2019-03-10T23:33:07.135Z,5.70
2019-03-10T23:35:36.071Z,5.70
2019-03-10T23:38:04.928Z,5.70
2019-03-10T23:40:33.767Z,5.70
2019-03-10T23:43:02.671Z,5.70
2019-03-10T23:45:31.625Z,5.70
2019-03-10T23:48:00.472Z,5.60
2019-03-10T23:50:29.473Z,5.50
2019-03-10T23:52:58.307Z,5.40
2019-03-10T23:57:49.969Z,5.20
